Time;durP1;ratioP1;P1;durP2;ratioP2;P2;SDS_P1;SDS_P2;PMS_P1;PMS_P2;Temp;Humidity;BMP_temperature;BMP_pressure;BME280_temperature;BME280_humidity;BME280_pressure;Samples;Min_cycle;Max_cycle;Signal;HPM_P1;HPM_P2
2023/07/19 00:02:07;;;;;;;9.45;6.18;;;;;;;;;;5044092;28;20041;-69
2023/07/19 00:04:33;;;;;;;11.85;8.27;;;;;;;;;;5040485;28;20087;-69
2023/07/19 00:06:59;;;;;;;9.75;7.18;;;;;;;;;;5045323;28;20043;-70
2023/07/19 00:09:25;;;;;;;10.02;7.78;;;;;;;;;;5049323;28;20036;-69
2023/07/19 00:11:51;;;;;;;10.70;7.53;;;;;;;;;;5043070;28;20435;-68
2023/07/19 00:14:18;;;;;;;15.63;8.15;;;;;;;;;;5045700;28;20033;-69
2023/07/19 00:16:45;;;;;;;9.73;7.78;;;;;;;;;;5041162;28;20037;-69
2023/07/19 00:19:11;;;;;;;20.02;9.65;;;;;;;;;;5051437;28;20029;-69
2023/07/19 00:21:37;;;;;;;13.48;8.35;;;;;;;;;;5059059;28;20022;-69
2023/07/19 00:24:03;;;;;;;11.43;8.40;;;;;;;;;;5043360;28;20055;-68
2023/07/19 00:26:29;;;;;;;10.68;8.13;;;;;;;;;;5037679;28;20108;-68
2023/07/19 00:28:56;;;;;;;15.07;8.98;;;;;;;;;;5040692;28;20080;-69
2023/07/19 00:31:22;;;;;;;13.00;9.05;;;;;;;;;;5047117;28;20028;-69
2023/07/19 00:33:49;;;;;;;16.92;9.57;;;;;;;;;;5046391;28;20044;-69
2023/07/19 00:36:15;;;;;;;11.90;8.98;;;;;;;;;;5045625;28;20019;-69
2023/07/19 00:38:41;;;;;;;14.90;9.93;;;;;;;;;;5043931;28;20017;-69
2023/07/19 00:41:08;;;;;;;13.48;9.48;;;;;;;;;;5044825;28;20048;-68
2023/07/19 00:43:34;;;;;;;15.52;8.77;;;;;;;;;;5045335;28;20021;-70
2023/07/19 00:46:00;;;;;;;13.50;8.63;;;;;;;;;;5044289;28;20025;-69
2023/07/19 00:48:27;;;;;;;14.40;9.73;;;;;;;;;;5032756;28;20092;-68
2023/07/19 00:50:54;;;;;;;13.63;9.38;;;;;;;;;;5044954;28;20029;-70
2023/07/19 00:53:20;;;;;;;14.07;10.25;;;;;;;;;;5043858;28;20029;-69
2023/07/19 00:55:50;;;;;;;11.98;9.68;;;;;;;;;;5044049;28;20029;-69
2023/07/19 00:58:18;;;;;;;15.85;9.43;;;;;;;;;;5039237;28;20025;-68
2023/07/19 01:00:46;;;;;;;15.60;9.25;;;;;;;;;;5044476;28;20457;-69
2023/07/19 01:03:13;;;;;;;10.88;8.95;;;;;;;;;;5024794;28;20091;-69
2023/07/19 01:05:40;;;;;;;12.25;8.40;;;;;;;;;;5058349;28;20091;-68
2023/07/19 01:08:06;;;;;;;12.45;9.40;;;;;;;;;;5043703;28;20041;-70
2023/07/19 01:10:33;;;;;;;14.00;10.50;;;;;;;;;;5059231;28;20642;-70
2023/07/19 01:13:11;;;;;;;13.35;10.63;;;;;;;;;;5062403;28;20079;-69
2023/07/19 01:15:40;;;;;;;15.43;10.77;;;;;;;;;;5045809;28;20025;-69
2023/07/19 01:18:06;;;;;;;16.55;10.30;;;;;;;;;;5044555;28;20035;-69
2023/07/19 01:20:33;;;;;;;12.85;11.23;;;;;;;;;;5042839;28;20025;-69
2023/07/19 01:22:59;;;;;;;13.43;11.65;;;;;;;;;;5046049;28;20040;-69
2023/07/19 01:25:26;;;;;;;17.85;12.85;;;;;;;;;;5041133;28;20057;-69
2023/07/19 01:27:52;;;;;;;16.02;12.40;;;;;;;;;;5044497;28;20045;-69
2023/07/19 01:30:18;;;;;;;16.60;12.07;;;;;;;;;;5044418;28;20045;-69
2023/07/19 01:32:44;;;;;;;16.48;12.45;;;;;;;;;;5044745;28;20140;-70
2023/07/19 01:35:12;;;;;;;17.55;12.98;;;;;;;;;;5039629;28;20033;-70
2023/07/19 01:37:39;;;;;;;19.70;12.57;;;;;;;;;;5035045;28;20029;-69
2023/07/19 01:40:06;;;;;;;25.67;13.25;;;;;;;;;;5043137;28;20486;-69
2023/07/19 01:42:32;;;;;;;16.48;12.65;;;;;;;;;;5040707;28;20025;-69
2023/07/19 01:45:01;;;;;;;18.88;13.07;;;;;;;;;;5043286;28;20025;-68
2023/07/19 01:47:27;;;;;;;18.38;13.50;;;;;;;;;;5041365;28;20091;-69
2023/07/19 01:49:53;;;;;;;19.35;13.25;;;;;;;;;;5042508;28;20033;-69
2023/07/19 01:52:20;;;;;;;17.65;12.43;;;;;;;;;;5040241;28;20061;-69
2023/07/19 01:54:46;;;;;;;15.57;12.13;;;;;;;;;;5043605;28;20028;-69
2023/07/19 01:57:13;;;;;;;17.92;14.13;;;;;;;;;;5040083;28;20033;-69
2023/07/19 01:59:39;;;;;;;20.80;13.30;;;;;;;;;;5062238;28;20025;-69
2023/07/19 02:02:05;;;;;;;19.58;13.65;;;;;;;;;;5041938;28;20119;-69
2023/07/19 02:04:31;;;;;;;17.30;12.60;;;;;;;;;;5036507;28;20025;-69
2023/07/19 02:06:58;;;;;;;19.38;13.18;;;;;;;;;;5037721;28;20486;-69
2023/07/19 02:09:24;;;;;;;21.95;16.98;;;;;;;;;;5041667;28;20047;-69
2023/07/19 02:11:50;;;;;;;24.35;17.33;;;;;;;;;;5044941;28;20037;-69
2023/07/19 02:14:16;;;;;;;21.98;15.20;;;;;;;;;;5044790;28;20059;-69
2023/07/19 02:16:42;;;;;;;17.75;14.48;;;;;;;;;;5039745;28;20029;-70
2023/07/19 02:19:08;;;;;;;22.95;16.05;;;;;;;;;;5043694;28;20090;-69
2023/07/19 02:21:35;;;;;;;24.88;16.65;;;;;;;;;;5053098;28;20032;-69
2023/07/19 02:24:01;;;;;;;22.40;17.17;;;;;;;;;;5047279;28;20051;-71
2023/07/19 02:26:27;;;;;;;25.25;18.17;;;;;;;;;;5041947;28;20059;-69
2023/07/19 02:28:53;;;;;;;25.13;18.25;;;;;;;;;;5043855;28;20045;-70
2023/07/19 02:31:20;;;;;;;25.30;17.40;;;;;;;;;;5043767;28;20105;-70
2023/07/19 02:33:46;;;;;;;30.13;18.25;;;;;;;;;;5044270;28;20175;-68
2023/07/19 02:36:12;;;;;;;26.75;19.63;;;;;;;;;;5046271;28;20195;-70
2023/07/19 02:38:41;;;;;;;26.98;19.27;;;;;;;;;;5044789;28;20025;-70
2023/07/19 02:41:07;;;;;;;27.33;19.80;;;;;;;;;;5042006;28;20036;-70
2023/07/19 02:43:35;;;;;;;28.88;18.55;;;;;;;;;;5040573;28;20050;-70
2023/07/19 02:46:01;;;;;;;25.48;16.95;;;;;;;;;;5043802;28;20037;-70
2023/07/19 02:48:27;;;;;;;20.77;13.73;;;;;;;;;;5048309;28;20036;-70
2023/07/19 02:50:53;;;;;;;17.73;13.10;;;;;;;;;;5063379;28;20061;-70
2023/07/19 02:53:20;;;;;;;22.33;13.77;;;;;;;;;;5047352;28;20029;-70
2023/07/19 02:55:46;;;;;;;19.35;13.30;;;;;;;;;;5041867;28;20029;-71
2023/07/19 02:58:13;;;;;;;24.02;13.75;;;;;;;;;;5045990;28;20033;-70
2023/07/19 03:00:42;;;;;;;22.50;14.45;;;;;;;;;;5041827;28;20104;-70
2023/07/19 03:03:12;;;;;;;18.85;13.80;;;;;;;;;;5048253;28;20048;-69
2023/07/19 03:05:42;;;;;;;17.15;14.02;;;;;;;;;;5044146;28;20094;-69
2023/07/19 03:08:09;;;;;;;20.40;14.23;;;;;;;;;;5029855;28;20080;-69
2023/07/19 03:10:36;;;;;;;22.15;14.63;;;;;;;;;;5044564;28;20029;-70
2023/07/19 03:13:03;;;;;;;23.35;14.88;;;;;;;;;;5048518;28;20036;-69
2023/07/19 03:15:34;;;;;;;23.08;14.07;;;;;;;;;;5046043;28;20029;-70
2023/07/19 03:18:00;;;;;;;23.60;14.32;;;;;;;;;;5059197;28;20036;-70
2023/07/19 03:20:27;;;;;;;22.20;15.25;;;;;;;;;;5066265;28;20017;-70
2023/07/19 03:22:55;;;;;;;17.90;15.95;;;;;;;;;;5046130;28;20047;-69
2023/07/19 03:25:21;;;;;;;26.42;15.88;;;;;;;;;;5039827;28;20037;-69
2023/07/19 03:27:47;;;;;;;29.52;17.33;;;;;;;;;;5044311;28;20120;-69
2023/07/19 03:30:14;;;;;;;29.38;17.80;;;;;;;;;;5046420;28;20051;-69
2023/07/19 03:32:41;;;;;;;24.75;17.73;;;;;;;;;;5046174;28;20032;-69
2023/07/19 03:35:07;;;;;;;24.80;17.35;;;;;;;;;;5045696;28;20033;-69
2023/07/19 03:37:36;;;;;;;29.52;18.48;;;;;;;;;;5036649;28;20021;-69
2023/07/19 03:40:04;;;;;;;29.92;19.40;;;;;;;;;;5035842;28;20513;-70
2023/07/19 03:42:31;;;;;;;31.20;19.85;;;;;;;;;;5044759;28;20025;-70
2023/07/19 03:44:58;;;;;;;33.22;19.88;;;;;;;;;;5044520;28;20570;-70
2023/07/19 03:47:25;;;;;;;33.25;21.45;;;;;;;;;;5031076;28;20029;-70
2023/07/19 03:49:54;;;;;;;34.70;22.73;;;;;;;;;;5041091;28;20029;-70
2023/07/19 03:52:20;;;;;;;31.40;20.15;;;;;;;;;;5043331;28;20371;-70
2023/07/19 03:54:47;;;;;;;37.88;21.75;;;;;;;;;;5039384;28;20036;-70
2023/07/19 03:57:13;;;;;;;34.03;21.50;;;;;;;;;;5040779;28;20032;-69
2023/07/19 03:59:39;;;;;;;27.45;19.60;;;;;;;;;;5046399;28;20025;-70
2023/07/19 04:02:06;;;;;;;32.95;22.05;;;;;;;;;;5042926;28;20029;-69
2023/07/19 04:04:32;;;;;;;28.02;20.63;;;;;;;;;;5045785;28;20039;-70
2023/07/19 04:06:58;;;;;;;30.63;20.90;;;;;;;;;;5044928;28;20394;-69
2023/07/19 04:09:24;;;;;;;37.63;21.67;;;;;;;;;;5047014;28;20035;-69
2023/07/19 04:11:50;;;;;;;29.65;19.42;;;;;;;;;;5044243;28;20040;-70
2023/07/19 04:14:16;;;;;;;34.47;22.73;;;;;;;;;;5024894;28;20032;-69
2023/07/19 04:16:42;;;;;;;36.13;21.75;;;;;;;;;;5044610;28;20036;-69
2023/07/19 04:19:09;;;;;;;29.98;20.67;;;;;;;;;;5044673;28;20036;-69
2023/07/19 04:21:35;;;;;;;37.50;22.42;;;;;;;;;;5038672;28;20021;-69
2023/07/19 04:24:01;;;;;;;33.72;21.30;;;;;;;;;;5040329;28;20172;-69
2023/07/19 04:26:29;;;;;;;26.20;20.15;;;;;;;;;;5048810;28;20041;-70
2023/07/19 04:28:55;;;;;;;31.13;20.95;;;;;;;;;;5042623;28;20123;-70
2023/07/19 04:31:21;;;;;;;28.52;19.98;;;;;;;;;;5062213;28;20047;-69
2023/07/19 04:33:47;;;;;;;35.85;21.77;;;;;;;;;;5045571;28;20049;-69
2023/07/19 04:36:14;;;;;;;30.77;19.98;;;;;;;;;;5048014;28;20096;-69
2023/07/19 04:38:42;;;;;;;24.58;18.05;;;;;;;;;;5053557;28;20029;-70
2023/07/19 04:41:09;;;;;;;27.48;17.98;;;;;;;;;;5040555;28;20449;-70
2023/07/19 04:43:36;;;;;;;22.35;17.20;;;;;;;;;;5043585;28;20035;-70
2023/07/19 04:46:04;;;;;;;28.42;18.25;;;;;;;;;;5037321;28;20476;-70
2023/07/19 04:48:31;;;;;;;24.17;17.38;;;;;;;;;;5040250;28;20120;-70
2023/07/19 04:50:57;;;;;;;24.98;16.90;;;;;;;;;;5037704;28;20033;-70
2023/07/19 04:53:25;;;;;;;24.15;17.00;;;;;;;;;;5041945;28;20025;-69
2023/07/19 04:55:53;;;;;;;20.92;17.27;;;;;;;;;;5056005;28;20446;-69
2023/07/19 04:58:22;;;;;;;23.83;17.67;;;;;;;;;;5039510;28;20021;-69
2023/07/19 05:00:48;;;;;;;26.48;16.33;;;;;;;;;;5044630;28;20035;-69
2023/07/19 05:03:14;;;;;;;25.00;15.45;;;;;;;;;;5047549;28;20037;-69
2023/07/19 05:05:41;;;;;;;20.90;15.20;;;;;;;;;;5043802;28;20033;-69
2023/07/19 05:08:08;;;;;;;17.73;12.57;;;;;;;;;;5046556;28;20028;-70
2023/07/19 05:10:38;;;;;;;20.17;13.63;;;;;;;;;;5041454;28;20095;-70
2023/07/19 05:13:05;;;;;;;22.73;14.70;;;;;;;;;;5028799;28;20029;-69
2023/07/19 05:15:32;;;;;;;20.05;13.15;;;;;;;;;;5058368;28;20039;-69
2023/07/19 05:18:02;;;;;;;19.40;12.23;;;;;;;;;;5042687;28;20394;-69
2023/07/19 05:20:29;;;;;;;21.38;14.07;;;;;;;;;;5043845;28;20033;-69
2023/07/19 05:22:55;;;;;;;19.15;12.88;;;;;;;;;;5045628;28;20013;-69
2023/07/19 05:25:21;;;;;;;21.23;12.02;;;;;;;;;;5045337;28;20041;-68
2023/07/19 05:27:47;;;;;;;22.33;13.15;;;;;;;;;;5046222;28;20041;-68
2023/07/19 05:30:13;;;;;;;18.77;12.75;;;;;;;;;;5046852;28;20490;-68
2023/07/19 05:32:40;;;;;;;25.10;13.40;;;;;;;;;;5042769;28;20768;-69
2023/07/19 05:35:06;;;;;;;17.63;13.23;;;;;;;;;;5042364;28;20055;-69
2023/07/19 05:37:32;;;;;;;18.55;12.90;;;;;;;;;;5047724;28;20041;-69
2023/07/19 05:39:59;;;;;;;20.67;12.45;;;;;;;;;;5023684;28;20103;-68
2023/07/19 05:42:25;;;;;;;18.60;12.10;;;;;;;;;;5041477;28;20399;-69
2023/07/19 05:44:51;;;;;;;18.08;12.40;;;;;;;;;;5037843;28;20061;-68
2023/07/19 05:47:17;;;;;;;21.38;11.98;;;;;;;;;;5036153;28;20044;-69
2023/07/19 05:49:43;;;;;;;20.45;13.13;;;;;;;;;;5024250;28;20136;-69
2023/07/19 05:52:10;;;;;;;21.08;12.65;;;;;;;;;;5040094;28;20032;-68
2023/07/19 05:54:36;;;;;;;16.77;12.38;;;;;;;;;;5047658;28;20065;-70
2023/07/19 05:57:03;;;;;;;16.52;12.48;;;;;;;;;;5042647;28;20091;-68
2023/07/19 05:59:29;;;;;;;22.00;12.25;;;;;;;;;;5047472;28;20033;-68
2023/07/19 06:01:55;;;;;;;18.38;11.57;;;;;;;;;;5047025;28;20024;-69
2023/07/19 06:04:21;;;;;;;17.98;11.07;;;;;;;;;;5056149;28;20033;-68
2023/07/19 06:06:49;;;;;;;16.13;10.73;;;;;;;;;;5033607;28;20041;-68
2023/07/19 06:09:17;;;;;;;14.63;10.15;;;;;;;;;;5046144;28;20116;-69
2023/07/19 06:11:44;;;;;;;17.92;10.20;;;;;;;;;;5041509;28;20040;-69
2023/07/19 06:14:10;;;;;;;12.73;9.30;;;;;;;;;;5045512;28;20120;-69
2023/07/19 06:16:39;;;;;;;16.08;9.85;;;;;;;;;;5042511;28;20079;-69
2023/07/19 06:19:05;;;;;;;12.32;7.72;;;;;;;;;;5045948;28;20025;-69
2023/07/19 06:21:31;;;;;;;12.88;8.02;;;;;;;;;;5039075;28;20123;-69
2023/07/19 06:23:58;;;;;;;12.02;6.47;;;;;;;;;;5042229;28;20038;-69
2023/07/19 06:26:24;;;;;;;12.23;5.63;;;;;;;;;;5030412;28;20029;-69
2023/07/19 06:28:50;;;;;;;10.25;5.30;;;;;;;;;;5042147;28;20418;-70
2023/07/19 06:31:16;;;;;;;10.05;4.30;;;;;;;;;;5047998;28;20076;-69
2023/07/19 06:33:42;;;;;;;11.50;3.80;;;;;;;;;;5041572;28;20021;-69
2023/07/19 06:36:08;;;;;;;7.38;2.30;;;;;;;;;;5043879;28;20037;-70
2023/07/19 06:38:36;;;;;;;4.10;1.73;;;;;;;;;;5035302;28;20048;-70
2023/07/19 06:41:03;;;;;;;6.57;1.95;;;;;;;;;;5043973;28;20596;-68
2023/07/19 06:43:29;;;;;;;6.15;1.80;;;;;;;;;;5041473;28;20029;-69
2023/07/19 06:45:55;;;;;;;11.05;2.13;;;;;;;;;;5039565;28;20033;-69
2023/07/19 06:48:22;;;;;;;4.57;1.80;;;;;;;;;;5038040;28;20048;-69
2023/07/19 06:50:49;;;;;;;6.88;1.73;;;;;;;;;;5031245;28;20513;-70
2023/07/19 06:53:16;;;;;;;3.78;1.77;;;;;;;;;;5030365;28;20041;-71
2023/07/19 06:55:42;;;;;;;5.50;1.58;;;;;;;;;;5038044;28;20041;-70
2023/07/19 06:58:08;;;;;;;3.75;1.60;;;;;;;;;;5045156;28;20048;-69
2023/07/19 07:00:34;;;;;;;5.43;1.90;;;;;;;;;;5044708;28;20029;-69
2023/07/19 07:03:03;;;;;;;6.63;1.92;;;;;;;;;;5042063;28;20028;-69
2023/07/19 07:05:30;;;;;;;6.43;1.95;;;;;;;;;;5040793;28;20057;-69
2023/07/19 07:07:56;;;;;;;5.53;2.10;;;;;;;;;;5041286;28;20029;-69
2023/07/19 07:10:22;;;;;;;5.40;2.20;;;;;;;;;;5035783;28;20112;-70
2023/07/19 07:12:48;;;;;;;5.78;2.40;;;;;;;;;;5053269;28;20474;-69
2023/07/19 07:15:15;;;;;;;7.07;2.25;;;;;;;;;;5046482;28;20067;-69
2023/07/19 07:17:41;;;;;;;5.63;2.25;;;;;;;;;;5037897;28;20072;-69
2023/07/19 07:20:08;;;;;;;5.50;1.90;;;;;;;;;;5030123;28;20030;-69
2023/07/19 07:22:34;;;;;;;5.85;2.00;;;;;;;;;;5045485;28;20087;-69
2023/07/19 07:25:00;;;;;;;9.40;2.50;;;;;;;;;;5041085;28;20037;-69
2023/07/19 07:27:29;;;;;;;5.82;2.63;;;;;;;;;;5039593;28;20037;-69
2023/07/19 07:29:56;;;;;;;6.40;2.45;;;;;;;;;;5044412;28;20126;-71
2023/07/19 07:32:22;;;;;;;6.95;2.97;;;;;;;;;;5040918;28;20091;-69
2023/07/19 07:34:48;;;;;;;7.85;2.75;;;;;;;;;;5035728;28;20406;-69
2023/07/19 07:37:14;;;;;;;7.43;2.67;;;;;;;;;;5031650;28;20025;-70
2023/07/19 07:39:40;;;;;;;7.80;2.92;;;;;;;;;;5037094;28;20040;-70
2023/07/19 07:42:07;;;;;;;10.35;3.05;;;;;;;;;;5068039;28;20068;-69
2023/07/19 07:44:33;;;;;;;6.95;2.28;;;;;;;;;;5052307;28;20045;-70
2023/07/19 07:47:00;;;;;;;8.88;2.83;;;;;;;;;;5051761;28;20095;-70
2023/07/19 07:49:26;;;;;;;8.35;2.85;;;;;;;;;;5052643;28;20029;-69
2023/07/19 07:51:52;;;;;;;7.97;2.47;;;;;;;;;;5052723;28;20059;-69
2023/07/19 07:54:20;;;;;;;8.48;2.67;;;;;;;;;;5050167;28;21889;-70
2023/07/19 07:56:46;;;;;;;6.45;2.50;;;;;;;;;;5043038;28;20398;-69
2023/07/19 07:59:12;;;;;;;7.47;2.63;;;;;;;;;;5044754;28;20031;-69
2023/07/19 08:01:38;;;;;;;12.55;2.80;;;;;;;;;;5052034;28;20451;-70
2023/07/19 08:04:06;;;;;;;7.53;2.88;;;;;;;;;;5051805;28;20029;-68
2023/07/19 08:06:32;;;;;;;9.00;3.00;;;;;;;;;;5051611;28;20036;-69
2023/07/19 08:08:58;;;;;;;6.70;3.10;;;;;;;;;;5050783;28;20525;-69
2023/07/19 08:11:26;;;;;;;7.75;2.60;;;;;;;;;;5051947;28;20048;-69
2023/07/19 08:13:52;;;;;;;12.07;2.90;;;;;;;;;;5051316;28;20125;-69
2023/07/19 08:16:19;;;;;;;9.52;3.30;;;;;;;;;;5050589;28;20112;-68
2023/07/19 08:18:45;;;;;;;9.82;3.40;;;;;;;;;;5050902;28;20135;-69
2023/07/19 08:21:11;;;;;;;7.15;3.72;;;;;;;;;;5050966;28;20035;-69
2023/07/19 08:23:37;;;;;;;7.10;2.90;;;;;;;;;;5049975;28;20029;-70
2023/07/19 08:26:03;;;;;;;7.57;3.30;;;;;;;;;;5030439;28;20112;-69
2023/07/19 08:28:29;;;;;;;11.13;4.30;;;;;;;;;;5031205;28;20054;-70
2023/07/19 08:30:55;;;;;;;9.43;3.80;;;;;;;;;;5045022;28;20116;-69
2023/07/19 08:33:22;;;;;;;6.57;2.92;;;;;;;;;;5051314;28;20029;-69
2023/07/19 08:35:51;;;;;;;9.30;3.20;;;;;;;;;;5051254;28;20031;-69
2023/07/19 08:38:19;;;;;;;8.05;3.50;;;;;;;;;;5050693;28;20115;-70
2023/07/19 08:40:51;;;;;;;8.85;4.07;;;;;;;;;;5050821;28;20044;-69
2023/07/19 08:43:17;;;;;;;9.75;3.67;;;;;;;;;;5051416;28;20025;-69
2023/07/19 08:45:43;;;;;;;10.63;3.80;;;;;;;;;;5066256;28;20041;-69
2023/07/19 08:48:09;;;;;;;8.23;3.65;;;;;;;;;;5050123;28;20287;-69
2023/07/19 08:50:36;;;;;;;9.02;3.50;;;;;;;;;;5050538;28;20075;-69
2023/07/19 08:53:03;;;;;;;10.85;4.38;;;;;;;;;;5051328;28;20041;-70
2023/07/19 08:55:31;;;;;;;10.82;4.28;;;;;;;;;;5050149;28;20037;-69
2023/07/19 08:57:57;;;;;;;9.88;3.72;;;;;;;;;;5050473;28;20033;-69
2023/07/19 09:00:27;;;;;;;13.15;4.00;;;;;;;;;;5047174;28;20490;-69
2023/07/19 09:02:54;;;;;;;15.20;4.05;;;;;;;;;;5049767;28;20029;-69
2023/07/19 09:05:21;;;;;;;11.77;3.22;;;;;;;;;;5050026;28;20041;-70
2023/07/19 09:07:48;;;;;;;9.40;2.90;;;;;;;;;;5049515;28;20029;-69
2023/07/19 09:10:14;;;;;;;7.53;2.90;;;;;;;;;;5045339;28;20038;-69
2023/07/19 09:12:41;;;;;;;7.75;2.97;;;;;;;;;;5030696;28;20029;-70
2023/07/19 09:15:08;;;;;;;8.23;3.60;;;;;;;;;;5030381;28;20108;-69
2023/07/19 09:17:36;;;;;;;8.98;3.10;;;;;;;;;;5030525;28;20021;-69
2023/07/19 09:20:04;;;;;;;8.48;2.58;;;;;;;;;;5045383;28;20174;-70
2023/07/19 09:22:30;;;;;;;7.97;3.20;;;;;;;;;;5050129;28;20060;-70
2023/07/19 09:25:01;;;;;;;9.90;3.25;;;;;;;;;;5050244;28;20033;-70
2023/07/19 09:27:27;;;;;;;9.20;3.40;;;;;;;;;;5065360;28;20028;-69
2023/07/19 09:29:54;;;;;;;8.70;3.08;;;;;;;;;;5049325;28;20040;-69
2023/07/19 09:32:20;;;;;;;10.95;3.42;;;;;;;;;;5049907;28;20048;-70
2023/07/19 09:34:46;;;;;;;12.80;4.50;;;;;;;;;;5048744;28;20257;-69
2023/07/19 09:37:12;;;;;;;10.25;4.00;;;;;;;;;;5049863;28;20044;-69
2023/07/19 09:39:40;;;;;;;8.10;3.78;;;;;;;;;;5048074;28;20124;-69
2023/07/19 09:42:08;;;;;;;10.43;3.65;;;;;;;;;;5049734;28;20017;-69
2023/07/19 09:44:36;;;;;;;10.85;3.60;;;;;;;;;;5050031;28;20099;-69
2023/07/19 09:47:02;;;;;;;10.48;3.47;;;;;;;;;;5049910;28;20064;-69
2023/07/19 09:49:28;;;;;;;11.40;3.22;;;;;;;;;;5048780;28;20436;-70
2023/07/19 09:51:56;;;;;;;10.93;3.22;;;;;;;;;;5050208;28;20040;-69
2023/07/19 09:54:25;;;;;;;8.80;3.03;;;;;;;;;;5050214;28;20112;-69
2023/07/19 09:56:51;;;;;;;10.13;3.53;;;;;;;;;;5050148;28;20452;-69
2023/07/19 09:59:27;;;;;;;10.68;3.05;;;;;;;;;;5049503;28;20033;-70
2023/07/19 10:01:53;;;;;;;8.23;2.70;;;;;;;;;;5049971;28;20057;-69
2023/07/19 10:04:23;;;;;;;11.75;2.80;;;;;;;;;;5049239;28;20482;-69
2023/07/19 10:06:49;;;;;;;10.33;3.50;;;;;;;;;;5050129;28;20083;-69
2023/07/19 10:09:25;;;;;;;9.95;3.30;;;;;;;;;;5049397;28;20354;-69
2023/07/19 10:11:51;;;;;;;8.18;3.33;;;;;;;;;;5048628;28;20367;-68
2023/07/19 10:14:25;;;;;;;10.95;3.53;;;;;;;;;;5047339;28;20406;-69
2023/07/19 10:16:57;;;;;;;9.00;3.13;;;;;;;;;;5044815;28;20048;-69
2023/07/19 10:19:23;;;;;;;8.98;2.75;;;;;;;;;;5050234;28;20093;-69
2023/07/19 10:22:06;;;;;;;8.60;3.15;;;;;;;;;;5049651;28;20021;-69
2023/07/19 10:24:36;;;;;;;7.30;3.05;;;;;;;;;;5050015;28;20033;-68
2023/07/19 10:27:03;;;;;;;9.65;2.90;;;;;;;;;;5064280;28;20225;-69
2023/07/19 10:29:42;;;;;;;8.70;3.55;;;;;;;;;;5049486;28;20100;-68
2023/07/19 10:32:09;;;;;;;7.72;3.17;;;;;;;;;;5046680;28;20117;-69
2023/07/19 10:34:38;;;;;;;8.38;3.00;;;;;;;;;;5031370;28;20064;-69
2023/07/19 10:37:05;;;;;;;9.00;3.15;;;;;;;;;;5029514;28;20080;-69
2023/07/19 10:39:31;;;;;;;8.13;3.15;;;;;;;;;;5031766;28;20136;-70
2023/07/19 10:41:58;;;;;;;10.05;3.65;;;;;;;;;;5052154;28;20178;-68
2023/07/19 10:44:27;;;;;;;12.25;4.07;;;;;;;;;;5053325;28;20044;-68
2023/07/19 10:46:56;;;;;;;9.95;2.83;;;;;;;;;;5052851;28;20037;-70
2023/07/19 10:49:26;;;;;;;11.40;4.03;;;;;;;;;;5053441;28;20052;-69
2023/07/19 10:51:53;;;;;;;7.85;2.70;;;;;;;;;;5051631;28;20096;-69
2023/07/19 10:54:20;;;;;;;9.10;2.80;;;;;;;;;;5034457;28;20044;-69
2023/07/19 10:56:49;;;;;;;7.78;3.03;;;;;;;;;;5052668;28;20029;-69
2023/07/19 10:59:16;;;;;;;7.20;2.50;;;;;;;;;;5052844;28;20041;-69
2023/07/19 11:01:42;;;;;;;7.70;2.70;;;;;;;;;;5051793;28;20092;-68
2023/07/19 11:04:08;;;;;;;9.05;2.70;;;;;;;;;;5052835;28;20257;-68
2023/07/19 11:06:35;;;;;;;6.75;2.45;;;;;;;;;;5052567;28;20049;-69
2023/07/19 11:09:08;;;;;;;6.97;2.28;;;;;;;;;;5048598;28;20049;-68
2023/07/19 11:11:36;;;;;;;7.55;2.65;;;;;;;;;;5032832;28;20030;-69
2023/07/19 11:14:03;;;;;;;8.00;2.72;;;;;;;;;;5032928;28;20018;-69
2023/07/19 11:16:29;;;;;;;7.43;2.63;;;;;;;;;;5033039;28;20202;-68
2023/07/19 11:18:55;;;;;;;6.93;2.70;;;;;;;;;;5034731;28;20197;-69
2023/07/19 11:21:25;;;;;;;10.30;3.42;;;;;;;;;;5052754;28;20497;-70
2023/07/19 11:23:52;;;;;;;9.90;2.92;;;;;;;;;;5052982;28;20108;-69
2023/07/19 11:26:20;;;;;;;10.32;3.72;;;;;;;;;;5052673;28;20110;-69
2023/07/19 11:28:50;;;;;;;7.47;2.97;;;;;;;;;;5051973;28;20051;-69
2023/07/19 11:31:36;;;;;;;11.95;3.35;;;;;;;;;;5032914;28;20030;-69
2023/07/19 11:34:05;;;;;;;7.63;2.75;;;;;;;;;;5032735;28;20082;-69
2023/07/19 11:36:31;;;;;;;9.25;3.13;;;;;;;;;;5032661;28;20509;-69
2023/07/19 11:38:58;;;;;;;6.80;2.90;;;;;;;;;;5032329;28;20547;-69
2023/07/19 11:41:24;;;;;;;8.40;3.30;;;;;;;;;;5030962;28;20068;-68
2023/07/19 11:43:51;;;;;;;9.38;3.20;;;;;;;;;;5032054;28;20021;-70
2023/07/19 11:46:17;;;;;;;8.70;3.85;;;;;;;;;;5031868;28;20049;-69
2023/07/19 11:48:43;;;;;;;8.95;3.35;;;;;;;;;;5032883;28;20057;-70
2023/07/19 11:51:09;;;;;;;6.47;3.25;;;;;;;;;;5051667;28;20057;-68
2023/07/19 11:53:36;;;;;;;7.03;3.00;;;;;;;;;;5051829;28;20041;-69
2023/07/19 11:56:03;;;;;;;5.75;2.40;;;;;;;;;;5045742;28;20033;-68
2023/07/19 11:58:29;;;;;;;7.95;2.50;;;;;;;;;;5035810;28;20041;-69
2023/07/19 12:00:55;;;;;;;5.68;2.50;;;;;;;;;;5046330;28;20049;-70
2023/07/19 12:03:22;;;;;;;7.57;2.50;;;;;;;;;;5050445;28;20033;-70
2023/07/19 12:05:48;;;;;;;6.43;2.42;;;;;;;;;;5051632;28;20486;-71
2023/07/19 12:08:15;;;;;;;7.57;2.78;;;;;;;;;;5050268;28;20131;-68
2023/07/19 12:10:41;;;;;;;7.47;2.20;;;;;;;;;;5042775;28;20701;-69
2023/07/19 12:13:07;;;;;;;6.93;2.05;;;;;;;;;;5042192;28;20502;-68
2023/07/19 12:15:34;;;;;;;4.93;2.00;;;;;;;;;;5047370;28;20110;-69
2023/07/19 12:18:00;;;;;;;6.22;2.10;;;;;;;;;;5035184;28;20037;-69
2023/07/19 12:20:27;;;;;;;5.80;2.33;;;;;;;;;;5038797;28;20033;-71
2023/07/19 12:22:53;;;;;;;6.03;2.25;;;;;;;;;;5038462;28;20045;-69
2023/07/19 12:25:20;;;;;;;7.18;2.38;;;;;;;;;;5039100;28;20045;-69
2023/07/19 12:27:52;;;;;;;5.07;2.22;;;;;;;;;;5038605;28;20124;-71
2023/07/19 12:30:18;;;;;;;5.78;2.03;;;;;;;;;;5020662;28;20114;-69
2023/07/19 12:32:44;;;;;;;6.85;2.30;;;;;;;;;;5042274;28;20043;-68
2023/07/19 12:35:10;;;;;;;9.05;2.28;;;;;;;;;;5050709;28;20115;-69
2023/07/19 12:37:36;;;;;;;6.80;2.10;;;;;;;;;;5063424;28;20142;-69
2023/07/19 12:40:05;;;;;;;4.22;1.67;;;;;;;;;;5048423;28;20031;-69
2023/07/19 12:42:31;;;;;;;6.45;1.98;;;;;;;;;;5032709;28;20063;-70
2023/07/19 12:44:59;;;;;;;6.10;1.90;;;;;;;;;;5042955;28;20090;-69
2023/07/19 12:47:25;;;;;;;7.65;2.00;;;;;;;;;;5040067;28;20045;-69
2023/07/19 12:49:51;;;;;;;6.32;2.03;;;;;;;;;;5049047;28;20400;-68
2023/07/19 12:52:19;;;;;;;5.88;1.73;;;;;;;;;;5047448;28;20033;-68
2023/07/19 12:54:45;;;;;;;4.47;2.15;;;;;;;;;;5048928;28;20051;-70
2023/07/19 12:57:12;;;;;;;6.35;2.25;;;;;;;;;;5061339;28;20032;-69
2023/07/19 12:59:38;;;;;;;8.43;2.40;;;;;;;;;;5047337;28;20032;-69
2023/07/19 13:02:05;;;;;;;7.53;2.00;;;;;;;;;;5047070;28;20033;-69
2023/07/19 13:04:31;;;;;;;6.00;2.03;;;;;;;;;;5063985;28;20037;-69
2023/07/19 13:06:57;;;;;;;9.38;1.90;;;;;;;;;;5046879;28;20029;-69
2023/07/19 13:09:24;;;;;;;5.68;1.70;;;;;;;;;;5049173;28;20048;-69
2023/07/19 13:11:50;;;;;;;5.05;1.85;;;;;;;;;;5045951;28;20037;-69
2023/07/19 13:14:16;;;;;;;2.63;1.63;;;;;;;;;;5049746;28;20037;-68
2023/07/19 13:16:42;;;;;;;4.30;1.83;;;;;;;;;;5041006;28;20038;-69
2023/07/19 13:19:09;;;;;;;6.45;1.92;;;;;;;;;;5029422;28;20053;-69
2023/07/19 13:21:36;;;;;;;6.50;1.60;;;;;;;;;;5039906;28;20029;-69
2023/07/19 13:24:02;;;;;;;4.38;1.45;;;;;;;;;;5064244;28;20048;-68
2023/07/19 13:26:28;;;;;;;4.72;1.80;;;;;;;;;;5045576;28;20028;-69
2023/07/19 13:28:54;;;;;;;6.65;1.63;;;;;;;;;;5049374;28;20060;-69
2023/07/19 13:31:20;;;;;;;5.53;1.70;;;;;;;;;;5042551;28;20036;-68
2023/07/19 13:33:47;;;;;;;6.82;1.73;;;;;;;;;;5038581;28;20402;-68
2023/07/19 13:36:14;;;;;;;4.80;1.75;;;;;;;;;;5043165;28;20152;-68
2023/07/19 13:38:40;;;;;;;5.90;1.70;;;;;;;;;;5043644;28;20033;-68
2023/07/19 13:41:06;;;;;;;5.80;2.03;;;;;;;;;;5046529;28;20094;-69
2023/07/19 13:43:32;;;;;;;5.05;1.65;;;;;;;;;;5045136;28;20287;-68
2023/07/19 13:45:59;;;;;;;5.47;2.10;;;;;;;;;;5043696;28;20029;-68
2023/07/19 13:48:25;;;;;;;7.93;2.13;;;;;;;;;;5045754;28;20426;-68
2023/07/19 13:50:51;;;;;;;5.22;1.83;;;;;;;;;;5035192;28;20115;-69
2023/07/19 13:53:17;;;;;;;7.85;2.05;;;;;;;;;;5047854;28;20044;-68
2023/07/19 13:55:43;;;;;;;6.60;1.92;;;;;;;;;;5047190;28;20036;-68
2023/07/19 13:58:09;;;;;;;11.57;2.40;;;;;;;;;;5044951;28;20060;-67
2023/07/19 14:00:35;;;;;;;5.53;1.80;;;;;;;;;;5048997;28;20045;-68
2023/07/19 14:03:01;;;;;;;5.20;1.92;;;;;;;;;;5047590;28;20028;-69
2023/07/19 14:05:27;;;;;;;6.82;2.03;;;;;;;;;;5040064;28;20041;-70
2023/07/19 14:07:54;;;;;;;6.47;1.80;;;;;;;;;;5042707;28;20560;-70
2023/07/19 14:10:20;;;;;;;6.45;1.90;;;;;;;;;;5060080;28;20095;-69
2023/07/19 14:12:46;;;;;;;5.35;1.80;;;;;;;;;;5045953;28;20094;-69
2023/07/19 14:15:12;;;;;;;10.23;1.75;;;;;;;;;;5049031;28;20033;-68
2023/07/19 14:17:40;;;;;;;4.28;1.90;;;;;;;;;;5049603;28;20025;-68
2023/07/19 14:20:07;;;;;;;4.78;1.90;;;;;;;;;;5052941;28;20075;-69
2023/07/19 14:22:33;;;;;;;7.30;2.00;;;;;;;;;;5049577;28;20029;-69
2023/07/19 14:24:59;;;;;;;7.30;2.10;;;;;;;;;;5042794;28;20107;-69
2023/07/19 14:27:25;;;;;;;5.65;1.92;;;;;;;;;;5066279;28;20397;-69
2023/07/19 14:29:52;;;;;;;5.18;1.85;;;;;;;;;;5067715;28;20064;-69